createdAt,value
2022-12-12T00:01:25.696Z,3.47
2022-12-12T00:03:54.372Z,4.60
2022-12-12T00:06:25.466Z,3.23
2022-12-12T00:08:53.731Z,4.90
2022-12-12T00:11:22.631Z,3.00
2022-12-12T00:13:50.956Z,2.73
2022-12-12T00:16:19.320Z,2.90
2022-12-12T00:18:47.773Z,3.67
2022-12-12T00:21:18.942Z,3.47
2022-12-12T00:23:48.735Z,3.70
2022-12-12T00:26:20.231Z,3.50
2022-12-12T00:28:49.186Z,3.47
2022-12-12T00:31:18.058Z,4.53
2022-12-12T00:33:48.129Z,3.63
2022-12-12T00:36:16.664Z,3.27
2022-12-12T00:38:44.827Z,3.73
2022-12-12T00:41:14.596Z,4.07
2022-12-12T00:43:42.782Z,3.30
2022-12-12T00:46:14.786Z,3.60
2022-12-12T00:48:43.086Z,3.83
2022-12-12T00:51:14.928Z,3.70
2022-12-12T00:53:43.018Z,4.27
2022-12-12T00:56:11.226Z,5.20
2022-12-12T00:58:40.740Z,8.00
2022-12-12T01:01:14.171Z,5.40
2022-12-12T01:03:43.586Z,4.30
2022-12-12T01:06:11.773Z,4.60
2022-12-12T01:08:40.884Z,4.47
2022-12-12T01:11:11.298Z,7.40
2022-12-12T01:13:41.428Z,5.53
2022-12-12T01:16:10.336Z,5.60
2022-12-12T01:18:38.825Z,5.77
2022-12-12T01:21:09.692Z,6.03
2022-12-12T01:23:38.234Z,6.07
2022-12-12T01:26:09.651Z,9.10
2022-12-12T01:28:38.023Z,9.27
2022-12-12T01:31:08.369Z,9.83
2022-12-12T01:33:37.257Z,8.00
2022-12-12T01:36:06.597Z,7.93
2022-12-12T01:38:34.722Z,7.87
2022-12-12T01:41:02.908Z,7.40
2022-12-12T01:43:31.896Z,9.00
2022-12-12T01:46:37.275Z,9.10
2022-12-12T01:49:13.224Z,7.83
2022-12-12T01:51:42.322Z,8.80
2022-12-12T01:54:12.840Z,11.60
2022-12-12T01:56:44.250Z,11.40
2022-12-12T01:59:15.865Z,11.63
2022-12-12T02:01:45.690Z,12.17
2022-12-12T02:04:15.471Z,10.90
2022-12-12T02:06:44.668Z,12.33
2022-12-12T02:09:14.974Z,9.83
2022-12-12T02:11:46.599Z,13.60
2022-12-12T02:14:17.895Z,12.33
2022-12-12T02:17:05.877Z,12.27
2022-12-12T02:20:06.195Z,11.10
2022-12-12T02:22:54.824Z,10.77
2022-12-12T02:25:58.815Z,9.47
2022-12-12T02:29:08.642Z,9.03
2022-12-12T02:31:44.358Z,9.60
2022-12-12T02:34:20.991Z,9.40
2022-12-12T02:36:58.033Z,10.50
2022-12-12T02:39:32.122Z,12.60
2022-12-12T02:42:06.846Z,11.27
2022-12-12T02:44:41.171Z,10.20
2022-12-12T02:47:17.102Z,10.90
2022-12-12T02:49:50.067Z,10.23
2022-12-12T02:52:19.489Z,12.63
2022-12-12T02:54:48.668Z,13.83
2022-12-12T02:57:19.370Z,10.90
2022-12-12T02:59:50.473Z,10.43
2022-12-12T03:02:48.613Z,8.17
2022-12-12T03:05:56.272Z,10.43
2022-12-12T03:08:39.285Z,13.47
2022-12-12T03:11:12.317Z,8.50
2022-12-12T03:13:49.030Z,9.73
2022-12-12T03:16:27.771Z,11.37
2022-12-12T03:19:05.171Z,9.13
2022-12-12T03:21:41.005Z,11.27
2022-12-12T03:24:15.993Z,8.67
2022-12-12T03:26:50.375Z,9.77
2022-12-12T03:29:23.177Z,11.23
2022-12-12T03:31:57.877Z,9.17
2022-12-12T03:34:34.789Z,15.03
2022-12-12T03:37:08.070Z,10.83
2022-12-12T03:39:41.786Z,11.37
2022-12-12T03:42:14.480Z,7.60
2022-12-12T03:44:48.223Z,9.60
2022-12-12T03:47:24.769Z,10.90
2022-12-12T03:49:59.033Z,11.80
2022-12-12T03:52:34.855Z,10.83
2022-12-12T03:55:09.712Z,11.30
2022-12-12T03:57:42.658Z,11.47
2022-12-12T04:00:15.481Z,11.67
2022-12-12T04:02:51.961Z,9.50
2022-12-12T04:05:25.399Z,12.67
2022-12-12T04:07:59.851Z,9.30
2022-12-12T04:10:52.183Z,8.73
2022-12-12T04:13:32.580Z,11.53
2022-12-12T04:16:05.439Z,10.77
2022-12-12T04:18:42.376Z,9.10
2022-12-12T04:21:47.883Z,11.70
2022-12-12T04:24:24.583Z,12.33
2022-12-12T04:26:59.061Z,12.67
2022-12-12T04:29:39.701Z,9.83
2022-12-12T04:32:20.074Z,9.90
2022-12-12T04:34:53.742Z,9.17
2022-12-12T04:37:26.054Z,11.47
2022-12-12T04:39:57.986Z,10.43
2022-12-12T04:42:29.882Z,7.03
2022-12-12T04:45:04.940Z,8.80
2022-12-12T04:47:35.116Z,10.43
2022-12-12T04:50:04.739Z,9.40
2022-12-12T04:52:35.904Z,7.73
2022-12-12T04:55:11.283Z,7.73
2022-12-12T04:57:43.985Z,6.67
2022-12-12T05:00:15.045Z,5.97
2022-12-12T05:02:51.541Z,8.17
2022-12-12T05:05:24.336Z,6.87
2022-12-12T05:07:58.328Z,8.13
2022-12-12T05:10:26.580Z,10.00
2022-12-12T05:12:59.978Z,8.87
2022-12-12T05:15:29.807Z,13.20
2022-12-12T05:18:02.879Z,13.77
2022-12-12T05:20:31.391Z,11.97
2022-12-12T05:23:00.885Z,12.07
2022-12-12T05:25:29.100Z,12.40
2022-12-12T05:27:57.493Z,11.30
2022-12-12T05:30:26.203Z,13.90
2022-12-12T05:32:54.372Z,11.70
2022-12-12T05:35:23.030Z,9.37
2022-12-12T05:37:52.104Z,13.53
2022-12-12T05:40:22.824Z,13.93
2022-12-12T05:42:51.634Z,10.23
2022-12-12T05:45:20.152Z,14.73
2022-12-12T05:47:48.253Z,13.67
2022-12-12T05:50:16.407Z,10.90
2022-12-12T05:52:45.193Z,10.20
2022-12-12T05:55:14.091Z,12.00
2022-12-12T05:57:43.807Z,9.30
2022-12-12T06:00:12.943Z,10.43
2022-12-12T06:02:41.130Z,8.60
2022-12-12T06:05:10.959Z,8.07
2022-12-12T06:07:39.576Z,8.40
2022-12-12T06:10:09.288Z,9.17
2022-12-12T06:12:37.424Z,8.20
2022-12-12T06:15:08.239Z,8.70
2022-12-12T06:17:36.482Z,8.83
2022-12-12T06:20:05.506Z,7.60
2022-12-12T06:22:35.116Z,6.60
2022-12-12T06:25:03.525Z,8.50
2022-12-12T06:27:31.660Z,11.43
2022-12-12T06:30:04.274Z,7.23
2022-12-12T06:33:01.073Z,16.20
2022-12-12T06:35:35.289Z,7.07
2022-12-12T06:38:03.691Z,8.40
2022-12-12T06:40:31.799Z,9.53
2022-12-12T06:42:59.879Z,12.37
2022-12-12T06:45:28.038Z,6.97
2022-12-12T06:47:57.528Z,6.97
2022-12-12T06:50:25.598Z,6.80
2022-12-12T06:52:53.691Z,11.50
2022-12-12T06:55:21.810Z,13.93
2022-12-12T06:57:50.220Z,12.77
2022-12-12T07:00:18.998Z,9.70
2022-12-12T07:02:47.193Z,6.23
2022-12-12T07:05:16.977Z,8.70
2022-12-12T07:07:45.449Z,8.37
2022-12-12T07:10:13.650Z,6.90
2022-12-12T07:12:45.436Z,8.07
2022-12-12T07:15:15.740Z,8.60
2022-12-12T07:17:43.879Z,6.00
2022-12-12T07:20:12.679Z,6.20
2022-12-12T07:22:43.061Z,6.33
2022-12-12T07:25:11.638Z,7.83
2022-12-12T07:27:39.959Z,7.60
2022-12-12T07:30:09.114Z,5.77
2022-12-12T07:32:37.306Z,4.67
2022-12-12T07:35:05.798Z,6.07
2022-12-12T07:37:33.990Z,5.90
2022-12-12T07:40:03.476Z,6.67
2022-12-12T07:42:31.773Z,11.20
2022-12-12T07:44:59.961Z,5.63
2022-12-12T07:47:28.055Z,8.20
2022-12-12T07:49:56.238Z,9.20
2022-12-12T07:52:24.513Z,5.87
2022-12-12T07:54:52.662Z,12.00
2022-12-12T07:57:22.212Z,6.33
2022-12-12T07:59:50.338Z,8.30
2022-12-12T08:02:18.536Z,4.80
2022-12-12T08:04:46.915Z,5.90
2022-12-12T08:07:15.074Z,6.50
2022-12-12T08:09:43.162Z,5.90
2022-12-12T08:12:11.454Z,10.40
2022-12-12T08:14:41.096Z,10.97
2022-12-12T08:17:09.292Z,15.57
2022-12-12T08:19:37.544Z,11.03
2022-12-12T08:22:05.789Z,6.33
2022-12-12T08:24:34.010Z,8.63
2022-12-12T08:27:02.245Z,7.10
2022-12-12T08:29:30.350Z,5.00
2022-12-12T08:32:00.020Z,4.80
2022-12-12T08:34:28.154Z,7.37
2022-12-12T08:36:56.240Z,7.97
2022-12-12T08:39:24.663Z,7.77
2022-12-12T08:41:53.270Z,9.53
2022-12-12T08:44:22.248Z,7.60
2022-12-12T08:46:50.792Z,10.63
2022-12-12T08:49:20.358Z,11.57
2022-12-12T08:51:48.487Z,8.80
2022-12-12T08:54:16.648Z,7.77
2022-12-12T08:56:44.861Z,5.53
2022-12-12T08:59:13.373Z,14.63
2022-12-12T09:01:42.283Z,7.47
2022-12-12T09:04:11.564Z,9.70
2022-12-12T09:06:41.042Z,15.90
2022-12-12T09:09:09.159Z,8.60
2022-12-12T09:11:37.244Z,6.13
2022-12-12T09:14:05.532Z,7.47
2022-12-12T09:16:33.724Z,6.73
2022-12-12T09:19:01.876Z,5.63
2022-12-12T09:21:30.033Z,6.83
2022-12-12T09:23:59.767Z,6.87
2022-12-12T09:26:27.921Z,7.80
2022-12-12T09:28:56.145Z,13.40
2022-12-12T09:31:24.453Z,22.30
2022-12-12T09:33:52.673Z,53.27
2022-12-12T09:36:21.178Z,72.03
2022-12-12T09:38:49.345Z,54.30
2022-12-12T09:41:21.985Z,25.33
2022-12-12T09:43:57.207Z,23.73
2022-12-12T09:46:39.137Z,19.77
2022-12-12T09:49:15.601Z,15.57
2022-12-12T09:51:47.256Z,15.53
2022-12-12T09:54:18.028Z,16.70
2022-12-12T09:57:13.059Z,22.73
2022-12-12T09:59:50.412Z,23.97
2022-12-12T10:02:41.403Z,16.47
2022-12-12T10:05:24.263Z,16.80
2022-12-12T10:08:00.527Z,19.33
2022-12-12T10:10:34.106Z,17.77
2022-12-12T10:13:06.327Z,20.70
2022-12-12T10:15:39.350Z,20.13
2022-12-12T10:18:13.823Z,16.57
2022-12-12T10:20:48.791Z,16.87
2022-12-12T10:23:25.546Z,18.20
2022-12-12T10:25:58.017Z,16.70
2022-12-12T10:28:29.611Z,23.83
2022-12-12T10:31:17.947Z,18.77
2022-12-12T10:34:03.077Z,17.87
2022-12-12T10:36:46.619Z,18.90
2022-12-12T10:39:22.698Z,17.67
2022-12-12T10:41:58.501Z,22.23
2022-12-12T10:44:47.616Z,30.60
2022-12-12T10:47:16.020Z,27.93
2022-12-12T10:49:44.299Z,28.43
2022-12-12T10:52:19.227Z,22.87
2022-12-12T10:54:52.307Z,23.83
2022-12-12T10:57:24.731Z,28.63
2022-12-12T10:59:56.035Z,27.70
2022-12-12T11:02:30.192Z,32.97
2022-12-12T11:05:11.456Z,22.80
2022-12-12T11:07:41.882Z,17.00
2022-12-12T11:10:27.946Z,22.97
2022-12-12T11:13:02.113Z,23.63
2022-12-12T11:15:42.452Z,24.40
2022-12-12T11:18:16.291Z,23.90
2022-12-12T11:20:50.979Z,22.93
2022-12-12T11:23:22.188Z,18.93
2022-12-12T11:25:56.680Z,19.63
2022-12-12T11:28:29.771Z,24.63
2022-12-12T11:31:03.387Z,19.20
2022-12-12T11:33:35.681Z,20.47
2022-12-12T11:36:06.662Z,16.83
2022-12-12T11:38:41.078Z,16.93
2022-12-12T11:41:11.214Z,15.50
2022-12-12T11:43:53.811Z,35.20
2022-12-12T11:46:26.163Z,19.73
2022-12-12T11:49:00.514Z,30.70
2022-12-12T11:51:34.816Z,27.50
2022-12-12T11:54:04.685Z,15.53
2022-12-12T11:56:42.682Z,17.93
2022-12-12T11:59:30.538Z,16.40
2022-12-12T12:02:16.856Z,15.30
2022-12-12T12:04:54.855Z,15.83
2022-12-12T12:07:50.820Z,16.30
2022-12-12T12:10:33.604Z,19.93
2022-12-12T12:13:11.208Z,7.77
2022-12-12T12:15:47.830Z,8.10
2022-12-12T12:18:30.231Z,12.83
2022-12-12T12:21:21.813Z,9.50
2022-12-12T12:23:59.423Z,10.93
2022-12-12T12:26:36.161Z,9.63
2022-12-12T12:29:19.031Z,10.60
2022-12-12T12:31:59.886Z,12.53
2022-12-12T12:34:36.993Z,12.87
2022-12-12T12:37:21.844Z,13.07
2022-12-12T12:40:01.252Z,11.80
2022-12-12T12:42:49.625Z,8.37
2022-12-12T12:45:23.577Z,10.27
2022-12-12T12:47:57.338Z,12.70
2022-12-12T12:50:32.742Z,12.10
2022-12-12T12:53:06.293Z,11.90
2022-12-12T12:55:42.119Z,10.40
2022-12-12T12:58:19.798Z,9.47
2022-12-12T13:00:54.377Z,11.20
2022-12-12T13:03:27.714Z,11.77
2022-12-12T13:06:02.460Z,13.30
2022-12-12T13:08:36.094Z,14.73
2022-12-12T13:11:09.944Z,12.87
2022-12-12T13:13:41.519Z,14.10
2022-12-12T13:16:14.572Z,13.47
2022-12-12T13:18:46.160Z,9.83
2022-12-12T13:21:23.807Z,13.57
2022-12-12T13:23:57.908Z,11.77
2022-12-12T13:26:34.537Z,9.93
2022-12-12T13:29:07.908Z,11.60
2022-12-12T13:31:56.363Z,14.03
2022-12-12T13:34:27.840Z,11.13
2022-12-12T13:36:59.834Z,17.43
2022-12-12T13:39:31.187Z,14.70
2022-12-12T13:42:02.146Z,14.00
2022-12-12T13:44:37.159Z,14.60
2022-12-12T13:47:06.212Z,13.50
2022-12-12T13:49:47.099Z,15.33
2022-12-12T13:52:33.544Z,13.77
2022-12-12T13:55:23.489Z,14.53
2022-12-12T13:58:21.146Z,15.30
2022-12-12T14:00:49.699Z,15.10
2022-12-12T14:03:31.632Z,15.07
2022-12-12T14:06:11.954Z,14.23
2022-12-12T14:08:50.358Z,21.10
2022-12-12T14:11:39.404Z,14.30
2022-12-12T14:14:23.095Z,15.90
2022-12-12T14:16:56.480Z,19.73
2022-12-12T14:19:36.048Z,18.80
2022-12-12T14:22:04.449Z,22.03
2022-12-12T14:25:08.691Z,21.60
2022-12-12T14:28:16.004Z,17.90
2022-12-12T14:30:55.305Z,18.87
2022-12-12T14:34:15.699Z,19.73
2022-12-12T14:37:19.001Z,34.40
2022-12-12T14:40:11.068Z,40.30
2022-12-12T14:43:19.563Z,28.83
2022-12-12T14:45:40.048Z,50.30
2022-12-12T14:48:33.320Z,42.00
2022-12-12T14:51:06.191Z,46.87
2022-12-12T14:53:48.414Z,47.93
2022-12-12T14:56:19.054Z,47.23
2022-12-12T14:58:57.321Z,51.33
2022-12-12T15:01:32.444Z,60.57
2022-12-12T15:04:03.890Z,82.77
2022-12-12T15:06:34.632Z,72.43
2022-12-12T15:09:19.194Z,68.03
2022-12-12T15:11:48.437Z,59.50
2022-12-12T15:14:21.193Z,49.33
2022-12-12T15:16:53.527Z,38.13
2022-12-12T15:19:26.691Z,42.00
2022-12-12T15:21:55.218Z,38.00
2022-12-12T15:24:25.972Z,40.17
2022-12-12T15:26:57.091Z,42.33
2022-12-12T15:29:29.239Z,47.53
2022-12-12T15:32:01.583Z,42.90
2022-12-12T15:34:36.195Z,47.67
2022-12-12T15:37:21.745Z,49.90
2022-12-12T15:40:03.803Z,61.87
2022-12-12T15:42:31.948Z,46.80
2022-12-12T15:45:02.047Z,45.10
2022-12-12T15:47:30.460Z,46.33
2022-12-12T15:50:08.086Z,41.77
2022-12-12T15:52:36.875Z,44.60
2022-12-12T15:55:06.462Z,38.20
2022-12-12T15:57:46.343Z,31.30
2022-12-12T16:00:30.392Z,35.77
2022-12-12T16:03:00.672Z,34.80
2022-12-12T16:05:32.108Z,38.73
2022-12-12T16:08:32.031Z,28.80
2022-12-12T16:11:03.031Z,53.60
2022-12-12T16:13:38.615Z,40.90
2022-12-12T16:16:49.112Z,44.80
2022-12-12T16:19:37.170Z,55.03
2022-12-12T16:22:08.128Z,59.40
2022-12-12T16:24:48.213Z,56.10
2022-12-12T16:27:16.536Z,53.57
2022-12-12T16:29:44.916Z,52.97
2022-12-12T16:32:17.272Z,50.47
2022-12-12T16:34:46.950Z,44.40
2022-12-12T16:37:16.905Z,44.10
2022-12-12T16:39:45.475Z,39.27
2022-12-12T16:42:15.330Z,44.60
2022-12-12T16:44:43.664Z,45.53
2022-12-12T16:47:23.534Z,53.37
2022-12-12T16:49:53.214Z,54.53
2022-12-12T16:52:21.867Z,58.43
2022-12-12T16:54:53.915Z,69.73
2022-12-12T16:57:23.516Z,60.80
2022-12-12T16:59:51.850Z,46.40
2022-12-12T17:02:21.910Z,97.53
2022-12-12T17:04:51.074Z,84.83
2022-12-12T17:07:20.708Z,65.30
2022-12-12T17:09:48.898Z,81.40
2022-12-12T17:12:17.134Z,85.10
2022-12-12T17:14:45.288Z,72.20
2022-12-12T17:17:13.456Z,64.17
2022-12-12T17:19:41.883Z,62.93
2022-12-12T17:22:12.988Z,107.07
2022-12-12T17:24:42.883Z,95.20
2022-12-12T17:27:11.056Z,67.97
2022-12-12T17:29:39.243Z,66.07
2022-12-12T17:32:08.503Z,56.70
2022-12-12T17:34:36.933Z,58.07
2022-12-12T17:37:05.112Z,53.73
2022-12-12T17:39:33.222Z,80.30
2022-12-12T17:42:02.853Z,69.43
2022-12-12T17:44:32.039Z,66.30
2022-12-12T17:47:00.159Z,51.13
2022-12-12T17:49:28.412Z,66.33
2022-12-12T17:51:56.662Z,69.10
2022-12-12T17:54:24.858Z,60.73
2022-12-12T17:56:53.075Z,55.77
2022-12-12T17:59:22.672Z,56.73
2022-12-12T18:01:54.051Z,59.20
2022-12-12T18:04:27.724Z,44.90
2022-12-12T18:06:56.359Z,48.57
2022-12-12T18:09:24.531Z,38.67
2022-12-12T18:11:52.698Z,32.83
2022-12-12T18:14:22.253Z,69.63
2022-12-12T18:16:52.437Z,35.30
2022-12-12T18:19:21.228Z,41.03
2022-12-12T18:22:00.719Z,40.83
2022-12-12T18:24:30.474Z,43.60
2022-12-12T18:26:59.890Z,34.50
2022-12-12T18:29:29.584Z,31.80
2022-12-12T18:31:57.837Z,34.20
2022-12-12T18:34:26.519Z,31.60
2022-12-12T18:36:54.650Z,32.53
2022-12-12T18:39:22.822Z,21.70
2022-12-12T18:41:52.145Z,34.10
2022-12-12T18:44:20.502Z,35.77
2022-12-12T18:46:52.626Z,30.67
2022-12-12T18:49:20.884Z,34.57
2022-12-12T18:51:49.029Z,46.43
2022-12-12T18:54:17.583Z,38.77
2022-12-12T18:56:46.559Z,34.83
2022-12-12T18:59:16.131Z,33.63
2022-12-12T19:01:44.768Z,40.03
2022-12-12T19:04:23.559Z,41.37
2022-12-12T19:06:52.279Z,17.87
2022-12-12T19:09:21.116Z,17.77
2022-12-12T19:11:49.325Z,33.20
2022-12-12T19:14:18.616Z,33.00
2022-12-12T19:16:47.243Z,31.70
2022-12-12T19:19:15.947Z,35.97
2022-12-12T19:21:46.455Z,36.67
2022-12-12T19:24:15.209Z,40.23
2022-12-12T19:26:47.716Z,26.50
2022-12-12T19:29:18.358Z,18.10
2022-12-12T19:31:46.984Z,27.63
2022-12-12T19:34:16.911Z,24.83
2022-12-12T19:36:46.970Z,24.30
2022-12-12T19:39:15.133Z,18.93
2022-12-12T19:41:43.504Z,18.07
2022-12-12T19:44:13.550Z,17.70
2022-12-12T19:46:43.433Z,41.50
2022-12-12T19:49:13.695Z,39.60
2022-12-12T19:51:42.866Z,33.70
2022-12-12T19:54:15.503Z,20.60
2022-12-12T19:56:44.585Z,18.97
2022-12-12T19:59:14.008Z,17.83
2022-12-12T20:01:43.211Z,18.07
2022-12-12T20:04:16.662Z,22.37
2022-12-12T20:06:46.451Z,21.43
2022-12-12T20:09:18.008Z,16.07
2022-12-12T20:11:46.926Z,17.93
2022-12-12T20:14:16.774Z,15.80
2022-12-12T20:16:45.450Z,15.53
2022-12-12T20:19:14.612Z,13.07
2022-12-12T20:22:00.737Z,12.63
2022-12-12T20:24:31.955Z,13.90
2022-12-12T20:27:00.705Z,10.10
2022-12-12T20:29:29.171Z,12.87
2022-12-12T20:31:59.866Z,13.17
2022-12-12T20:34:29.119Z,13.03
2022-12-12T20:36:57.462Z,12.60
2022-12-12T20:39:26.172Z,13.83
2022-12-12T20:41:57.022Z,12.07
2022-12-12T20:44:25.800Z,11.13
2022-12-12T20:46:55.270Z,9.37
2022-12-12T20:49:24.856Z,9.70
2022-12-12T20:51:56.533Z,9.70
2022-12-12T20:54:25.962Z,8.27
2022-12-12T20:56:56.019Z,8.73
2022-12-12T20:59:24.800Z,9.23
2022-12-12T21:01:53.939Z,9.97
2022-12-12T21:04:22.555Z,8.00
2022-12-12T21:06:51.648Z,11.10
2022-12-12T21:09:24.772Z,11.03
2022-12-12T21:11:56.977Z,12.07
2022-12-12T21:14:25.554Z,12.33
2022-12-12T21:16:53.896Z,9.27
2022-12-12T21:19:23.437Z,10.93
2022-12-12T21:21:52.306Z,11.97
2022-12-12T21:24:20.885Z,13.50
2022-12-12T21:26:49.202Z,6.80
2022-12-12T21:29:19.187Z,11.10
2022-12-12T21:31:51.654Z,10.07
2022-12-12T21:34:22.612Z,10.47
2022-12-12T21:36:54.897Z,11.30
2022-12-12T21:39:25.092Z,11.00
2022-12-12T21:41:53.305Z,11.33
2022-12-12T21:44:22.906Z,13.50
2022-12-12T21:46:51.095Z,15.13
2022-12-12T21:49:27.815Z,13.50
2022-12-12T21:51:57.566Z,13.43
2022-12-12T21:54:26.527Z,16.43
2022-12-12T21:56:54.780Z,14.70
2022-12-12T21:59:25.808Z,11.50
2022-12-12T22:01:56.056Z,12.03
2022-12-12T22:04:24.690Z,13.10
2022-12-12T22:06:53.092Z,12.57
2022-12-12T22:09:21.201Z,13.70
2022-12-12T22:11:52.117Z,7.40
2022-12-12T22:14:32.651Z,11.00
2022-12-12T22:17:00.758Z,9.47
2022-12-12T22:19:29.141Z,9.50
2022-12-12T22:21:57.300Z,10.70
2022-12-12T22:24:26.198Z,7.50
2022-12-12T22:26:54.343Z,7.97
2022-12-12T22:29:22.567Z,8.03
2022-12-12T22:31:52.514Z,6.87
2022-12-12T22:34:23.470Z,8.33
2022-12-12T22:36:52.452Z,8.17
2022-12-12T22:39:23.639Z,7.87
2022-12-12T22:41:52.127Z,8.30
2022-12-12T22:44:22.473Z,6.80
2022-12-12T22:46:54.222Z,9.90
2022-12-12T22:49:25.848Z,7.33
2022-12-12T22:51:54.962Z,6.50
2022-12-12T22:54:23.415Z,5.10
2022-12-12T22:56:51.531Z,4.83
2022-12-12T22:59:19.656Z,2.90
2022-12-12T23:01:47.778Z,3.53
2022-12-12T23:04:17.522Z,3.83
2022-12-12T23:06:46.031Z,3.97
2022-12-12T23:09:16.655Z,3.30
2022-12-12T23:11:45.935Z,3.10
2022-12-12T23:14:16.289Z,5.00
2022-12-12T23:16:45.269Z,3.87
2022-12-12T23:19:16.017Z,2.47
2022-12-12T23:21:46.403Z,2.53
2022-12-12T23:24:15.189Z,1.90
2022-12-12T23:26:43.737Z,4.30
2022-12-12T23:29:16.394Z,1.20
2022-12-12T23:31:44.780Z,1.40
2022-12-12T23:34:16.424Z,1.20
2022-12-12T23:36:45.998Z,1.10
2022-12-12T23:39:15.174Z,1.60
2022-12-12T23:41:43.410Z,1.30
2022-12-12T23:44:13.293Z,1.47
2022-12-12T23:46:41.973Z,1.20
2022-12-12T23:49:16.168Z,1.63
2022-12-12T23:51:47.271Z,1.27
2022-12-12T23:54:17.345Z,1.60
2022-12-12T23:56:45.930Z,1.40
2022-12-12T23:59:17.942Z,1.20
